createdAt,value
2023-05-19T00:00:50.046Z,4.10
2023-05-19T00:03:31.972Z,3.90
2023-05-19T00:06:10.904Z,4.20
2023-05-19T00:08:47.633Z,4.30
2023-05-19T00:11:26.592Z,4.50
2023-05-19T00:14:05.892Z,4.20
2023-05-19T00:16:44.169Z,4.10
2023-05-19T00:19:20.640Z,4.00
2023-05-19T00:21:57.450Z,4.40
2023-05-19T00:24:36.016Z,4.00
2023-05-19T00:27:12.348Z,4.70
2023-05-19T00:29:48.650Z,4.50
2023-05-19T00:32:25.191Z,4.30
2023-05-19T00:35:02.514Z,4.20
2023-05-19T00:37:38.747Z,4.20
2023-05-19T00:40:16.561Z,4.40
2023-05-19T00:42:52.918Z,4.20
2023-05-19T00:45:30.847Z,4.90
2023-05-19T00:48:07.107Z,4.60
2023-05-19T00:50:44.291Z,4.50
2023-05-19T00:53:22.946Z,4.10
2023-05-19T00:56:03.049Z,4.80
2023-05-19T00:58:40.927Z,4.40
2023-05-19T01:01:17.616Z,4.20
2023-05-19T01:03:57.020Z,4.40
2023-05-19T01:06:33.725Z,4.30
2023-05-19T01:09:10.313Z,4.30
2023-05-19T01:11:46.766Z,4.40
2023-05-19T01:14:23.882Z,4.40
2023-05-19T01:17:10.950Z,4.10
2023-05-19T01:20:08.364Z,4.40
2023-05-19T01:23:36.773Z,4.10
2023-05-19T01:26:49.000Z,4.20
2023-05-19T01:29:59.943Z,4.20
2023-05-19T01:32:41.025Z,4.30
2023-05-19T01:35:20.355Z,4.00
2023-05-19T01:38:00.667Z,4.40
2023-05-19T01:40:38.877Z,3.90
2023-05-19T01:43:20.401Z,4.10
2023-05-19T01:45:59.091Z,4.40
2023-05-19T01:48:37.025Z,4.30
2023-05-19T01:51:13.585Z,4.30
2023-05-19T01:53:52.242Z,4.20
2023-05-19T01:56:43.082Z,4.00
2023-05-19T01:59:37.795Z,4.20
2023-05-19T02:02:27.695Z,4.20
2023-05-19T02:05:15.424Z,4.20
2023-05-19T02:08:03.783Z,4.30
2023-05-19T02:10:48.664Z,4.50
2023-05-19T02:13:31.142Z,4.20
2023-05-19T02:16:12.089Z,4.20
2023-05-19T02:21:25.592Z,4.20
2023-05-19T02:24:02.050Z,3.90
2023-05-19T02:26:38.852Z,3.90
2023-05-19T02:29:15.701Z,4.10
2023-05-19T02:31:52.174Z,4.10
2023-05-19T02:34:28.514Z,4.40
2023-05-19T02:37:05.193Z,4.40
2023-05-19T02:39:41.790Z,4.20
2023-05-19T02:42:18.510Z,4.40
2023-05-19T02:44:55.333Z,4.70
2023-05-19T02:47:31.610Z,4.10
2023-05-19T02:50:13.720Z,4.80
2023-05-19T02:52:50.046Z,4.60
2023-05-19T02:55:26.901Z,4.70
2023-05-19T02:58:03.212Z,4.70
2023-05-19T03:00:39.871Z,4.90
2023-05-19T03:03:16.777Z,5.00
2023-05-19T03:05:53.789Z,4.70
2023-05-19T03:08:30.299Z,5.10
2023-05-19T03:11:07.189Z,5.20
2023-05-19T03:13:43.652Z,5.20
2023-05-19T03:16:20.365Z,4.60
2023-05-19T03:18:57.130Z,5.00
2023-05-19T03:21:34.675Z,5.00
2023-05-19T03:24:12.128Z,4.80
2023-05-19T03:26:49.018Z,5.30
2023-05-19T03:29:25.543Z,5.40
2023-05-19T03:32:03.179Z,4.90
2023-05-19T03:34:39.531Z,5.10
2023-05-19T03:37:16.377Z,5.30
2023-05-19T03:39:52.619Z,5.40
2023-05-19T03:42:29.554Z,5.50
2023-05-19T03:45:06.883Z,5.20
2023-05-19T03:47:43.477Z,5.00
2023-05-19T03:51:04.497Z,5.70
2023-05-19T03:53:41.293Z,5.50
2023-05-19T03:56:18.398Z,5.10
2023-05-19T03:58:55.521Z,5.50
2023-05-19T04:01:32.390Z,4.90
2023-05-19T04:04:09.350Z,4.80
2023-05-19T04:06:46.122Z,5.20
2023-05-19T04:09:24.106Z,5.70
2023-05-19T04:12:00.347Z,4.80
2023-05-19T04:14:36.625Z,4.80
2023-05-19T04:17:13.175Z,6.70
2023-05-19T04:19:49.564Z,5.50
2023-05-19T04:22:25.941Z,5.10
2023-05-19T04:25:04.255Z,5.40
2023-05-19T04:27:41.119Z,5.60
2023-05-19T04:30:30.271Z,5.40
2023-05-19T04:33:07.763Z,77.30
2023-05-19T04:35:44.637Z,5.50
2023-05-19T04:38:22.305Z,5.30
2023-05-19T04:41:02.056Z,5.30
2023-05-19T04:43:41.857Z,5.20
2023-05-19T04:46:18.555Z,4.90
2023-05-19T04:48:57.186Z,5.00
2023-05-19T04:51:33.860Z,5.60
2023-05-19T04:54:10.890Z,5.10
2023-05-19T04:56:47.276Z,16.40
2023-05-19T04:59:24.769Z,5.50
2023-05-19T05:02:01.741Z,6.00
2023-05-19T05:04:43.651Z,5.30
2023-05-19T05:07:20.104Z,5.40
2023-05-19T05:09:56.536Z,5.50
2023-05-19T05:12:35.703Z,5.20
2023-05-19T05:15:16.292Z,5.60
2023-05-19T05:17:55.392Z,6.10
2023-05-19T05:20:35.568Z,6.10
2023-05-19T05:23:14.625Z,5.70
2023-05-19T05:25:54.208Z,5.90
2023-05-19T05:28:31.564Z,5.70
2023-05-19T05:31:08.044Z,6.40
2023-05-19T05:33:44.978Z,5.90
2023-05-19T05:36:22.626Z,6.00
2023-05-19T05:38:59.562Z,6.20
2023-05-19T05:41:36.329Z,6.80
2023-05-19T05:44:17.664Z,6.40
2023-05-19T05:46:56.536Z,6.60
2023-05-19T05:49:36.706Z,6.80
2023-05-19T05:52:16.576Z,7.40
2023-05-19T05:54:57.219Z,7.10
2023-05-19T05:57:35.498Z,6.80
2023-05-19T06:00:16.575Z,7.50
2023-05-19T06:02:57.369Z,8.00
2023-05-19T06:05:35.258Z,8.10
2023-05-19T06:08:12.564Z,7.90
2023-05-19T06:10:49.341Z,7.40
2023-05-19T06:13:26.247Z,6.80
2023-05-19T06:16:03.496Z,6.80
2023-05-19T06:18:44.487Z,8.20
2023-05-19T06:21:21.957Z,9.30
2023-05-19T06:23:58.271Z,9.40
2023-05-19T06:26:35.734Z,8.60
2023-05-19T06:29:12.878Z,8.50
2023-05-19T06:31:49.653Z,8.80
2023-05-19T06:34:27.107Z,8.00
2023-05-19T06:37:03.955Z,8.30
2023-05-19T06:39:41.931Z,8.30
2023-05-19T06:42:22.156Z,7.80
2023-05-19T06:45:05.727Z,8.40
2023-05-19T06:47:42.713Z,9.20
2023-05-19T06:50:19.598Z,9.80
2023-05-19T06:52:57.399Z,9.10
2023-05-19T06:55:37.069Z,8.50
2023-05-19T06:58:17.924Z,7.00
2023-05-19T07:00:54.718Z,8.40
2023-05-19T07:03:31.468Z,8.70
2023-05-19T07:06:11.960Z,7.70
2023-05-19T07:08:48.575Z,7.80
2023-05-19T07:11:26.525Z,7.60
2023-05-19T07:14:03.751Z,7.70
2023-05-19T07:16:41.086Z,8.00
2023-05-19T07:19:19.869Z,7.40
2023-05-19T07:21:57.417Z,7.20
2023-05-19T07:24:34.662Z,7.60
2023-05-19T07:27:12.277Z,7.30
2023-05-19T07:29:48.772Z,7.00
2023-05-19T07:32:25.244Z,7.20
2023-05-19T07:35:01.631Z,7.10
2023-05-19T07:37:38.404Z,7.20
2023-05-19T07:40:16.291Z,7.50
2023-05-19T07:42:53.867Z,8.00
2023-05-19T07:45:30.126Z,7.40
2023-05-19T07:48:07.931Z,7.00
2023-05-19T07:50:44.543Z,7.00
2023-05-19T07:53:22.698Z,6.90
2023-05-19T07:55:59.068Z,6.90
2023-05-19T07:58:36.239Z,7.30
2023-05-19T08:01:12.636Z,6.80
2023-05-19T08:03:49.024Z,7.10
2023-05-19T08:06:26.253Z,6.90
2023-05-19T08:09:03.908Z,6.60
2023-05-19T08:11:40.641Z,6.20
2023-05-19T08:14:17.584Z,6.50
2023-05-19T08:16:54.426Z,6.30
2023-05-19T08:19:31.138Z,6.40
2023-05-19T08:22:07.915Z,7.70
2023-05-19T08:24:44.841Z,7.50
2023-05-19T08:27:21.607Z,6.90
2023-05-19T08:29:58.646Z,7.20
2023-05-19T08:32:35.222Z,7.60
2023-05-19T08:35:13.653Z,7.20
2023-05-19T08:37:50.634Z,8.10
2023-05-19T08:40:31.642Z,7.60
2023-05-19T08:43:08.708Z,7.60
2023-05-19T08:45:48.356Z,8.00
2023-05-19T08:48:25.516Z,7.90
2023-05-19T08:51:19.586Z,5.60
2023-05-19T08:54:06.437Z,6.50
2023-05-19T08:56:45.684Z,6.70
2023-05-19T08:59:23.959Z,6.40
2023-05-19T09:02:02.312Z,6.00
2023-05-19T09:04:46.583Z,5.90
2023-05-19T09:07:26.879Z,6.40
2023-05-19T09:10:04.237Z,6.20
2023-05-19T09:12:41.204Z,6.10
2023-05-19T09:15:21.098Z,6.20
2023-05-19T09:18:11.831Z,6.30
2023-05-19T09:20:49.654Z,6.10
2023-05-19T09:23:28.779Z,5.60
2023-05-19T09:26:08.429Z,6.60
2023-05-19T09:28:49.332Z,5.80
2023-05-19T09:31:26.049Z,6.10
2023-05-19T09:34:04.529Z,5.70
2023-05-19T09:36:44.379Z,5.70
2023-05-19T09:39:23.229Z,5.60
2023-05-19T09:42:00.775Z,5.60
2023-05-19T09:44:40.055Z,5.30
2023-05-19T09:47:18.034Z,5.70
2023-05-19T09:49:57.008Z,5.80
2023-05-19T09:52:37.104Z,6.10
2023-05-19T09:55:16.919Z,5.80
2023-05-19T09:57:56.261Z,5.90
2023-05-19T10:00:35.315Z,5.90
2023-05-19T10:03:13.732Z,5.70
2023-05-19T10:05:51.876Z,5.00
2023-05-19T10:08:30.711Z,5.30
2023-05-19T10:11:08.800Z,5.70
2023-05-19T10:13:46.823Z,5.40
2023-05-19T10:16:26.832Z,5.10
2023-05-19T10:19:05.920Z,4.80
2023-05-19T10:21:43.792Z,5.70
2023-05-19T10:24:21.475Z,5.40
2023-05-19T10:27:06.848Z,6.00
2023-05-19T10:29:50.341Z,5.90
2023-05-19T10:32:32.257Z,5.70
2023-05-19T10:35:55.856Z,5.50
2023-05-19T10:38:48.399Z,5.10
2023-05-19T10:41:40.762Z,5.60
2023-05-19T10:44:36.929Z,5.60
2023-05-19T10:47:14.287Z,5.60
2023-05-19T10:49:53.201Z,6.00
2023-05-19T10:52:33.069Z,6.10
2023-05-19T10:55:15.781Z,6.20
2023-05-19T10:58:01.292Z,6.80
2023-05-19T11:00:40.321Z,5.70
2023-05-19T11:03:24.919Z,5.60
2023-05-19T11:06:26.294Z,5.90
2023-05-19T11:09:14.045Z,5.60
2023-05-19T11:11:54.543Z,6.30
2023-05-19T11:14:33.926Z,6.30
2023-05-19T11:17:22.177Z,6.90
2023-05-19T11:20:02.419Z,7.10
2023-05-19T11:22:41.265Z,6.90
2023-05-19T11:25:41.401Z,6.50
2023-05-19T11:28:25.890Z,6.10
2023-05-19T11:31:04.177Z,6.90
2023-05-19T11:33:41.161Z,6.60
2023-05-19T11:36:18.814Z,6.60
2023-05-19T11:38:57.152Z,7.50
2023-05-19T11:41:33.705Z,8.30
2023-05-19T11:44:14.388Z,7.60
2023-05-19T11:46:51.617Z,9.50
2023-05-19T11:49:30.631Z,8.50
2023-05-19T11:52:08.389Z,7.70
2023-05-19T11:54:49.490Z,8.40
2023-05-19T11:57:26.246Z,8.00
2023-05-19T12:00:08.214Z,8.20
2023-05-19T12:02:45.152Z,8.10
2023-05-19T12:05:28.184Z,8.70
2023-05-19T12:08:06.447Z,9.70
2023-05-19T12:10:44.349Z,9.50
2023-05-19T12:13:22.847Z,9.40
2023-05-19T12:16:04.820Z,9.00
2023-05-19T12:18:44.492Z,9.50
2023-05-19T12:21:21.341Z,9.70
2023-05-19T12:23:58.436Z,9.70
2023-05-19T12:26:36.266Z,10.10
2023-05-19T12:29:15.800Z,11.40
2023-05-19T12:31:54.502Z,10.50
2023-05-19T12:34:31.538Z,10.90
2023-05-19T12:37:11.868Z,10.40
2023-05-19T12:39:49.606Z,12.00
2023-05-19T12:42:31.108Z,12.30
2023-05-19T12:47:50.480Z,12.50
2023-05-19T12:50:35.283Z,15.20
2023-05-19T12:53:15.873Z,14.80
2023-05-19T12:55:55.158Z,14.60
2023-05-19T12:58:34.461Z,14.60
2023-05-19T13:01:18.862Z,14.90
2023-05-19T13:03:55.711Z,16.20
2023-05-19T13:06:33.969Z,15.80
2023-05-19T13:09:11.660Z,16.60
2023-05-19T13:11:51.339Z,15.90
2023-05-19T13:14:28.054Z,17.30
2023-05-19T13:17:04.684Z,17.60
2023-05-19T13:19:41.548Z,16.40
2023-05-19T13:22:18.025Z,15.80
2023-05-19T13:24:54.405Z,14.70
2023-05-19T13:27:31.140Z,14.30
2023-05-19T13:30:10.150Z,14.60
2023-05-19T13:32:47.250Z,14.90
2023-05-19T13:35:24.194Z,15.70
2023-05-19T13:38:00.794Z,14.50
2023-05-19T13:40:37.750Z,13.80
2023-05-19T13:43:14.420Z,15.60
2023-05-19T13:45:52.762Z,14.90
2023-05-19T13:48:29.297Z,15.90
2023-05-19T13:51:05.836Z,13.90
2023-05-19T13:53:42.585Z,13.00
2023-05-19T13:56:19.006Z,13.00
2023-05-19T13:58:57.130Z,12.50
2023-05-19T14:01:34.064Z,11.00
2023-05-19T14:04:11.951Z,11.40
2023-05-19T14:06:48.930Z,10.80
2023-05-19T14:09:26.306Z,9.80
2023-05-19T14:12:04.017Z,10.20
2023-05-19T14:14:40.604Z,9.20
2023-05-19T14:17:17.298Z,12.70
2023-05-19T14:19:53.677Z,14.40
2023-05-19T14:22:30.483Z,15.70
2023-05-19T14:25:07.926Z,15.90
2023-05-19T14:27:44.401Z,15.50
2023-05-19T14:30:21.081Z,15.30
2023-05-19T14:32:57.678Z,13.50
2023-05-19T14:35:34.722Z,12.70
2023-05-19T14:38:11.141Z,13.00
2023-05-19T14:40:48.857Z,13.00
2023-05-19T14:43:25.239Z,14.10
2023-05-19T14:46:02.275Z,12.80
2023-05-19T14:48:38.978Z,13.40
2023-05-19T14:51:15.639Z,15.00
2023-05-19T14:53:52.492Z,15.40
2023-05-19T14:56:29.034Z,18.30
2023-05-19T14:59:05.641Z,16.90
2023-05-19T15:01:42.422Z,18.70
2023-05-19T15:04:19.418Z,17.70
2023-05-19T15:07:09.653Z,17.90
2023-05-19T15:09:47.580Z,17.20
2023-05-19T15:12:24.114Z,16.90
2023-05-19T15:15:00.723Z,13.10
2023-05-19T15:17:37.185Z,17.00
2023-05-19T15:20:16.174Z,17.70
2023-05-19T15:23:04.306Z,16.40
2023-05-19T15:25:41.068Z,16.60
2023-05-19T15:28:17.934Z,17.10
2023-05-19T15:30:54.519Z,24.20
2023-05-19T15:33:31.054Z,17.60
2023-05-19T15:36:08.854Z,19.00
2023-05-19T15:38:45.557Z,19.90
2023-05-19T15:41:22.939Z,19.20
2023-05-19T15:44:00.556Z,20.20
2023-05-19T15:46:38.009Z,21.50
2023-05-19T15:49:14.549Z,19.20
2023-05-19T15:51:52.033Z,18.50
2023-05-19T15:54:28.489Z,20.00
2023-05-19T15:57:05.037Z,20.60
2023-05-19T15:59:41.653Z,19.40
2023-05-19T16:02:19.357Z,19.10
2023-05-19T16:04:57.878Z,27.50
2023-05-19T16:07:37.801Z,21.60
2023-05-19T16:10:15.928Z,19.00
2023-05-19T16:12:52.689Z,20.70
2023-05-19T16:15:29.145Z,19.20
2023-05-19T16:18:05.711Z,21.60
2023-05-19T16:20:43.007Z,20.20
2023-05-19T16:23:19.432Z,20.60
2023-05-19T16:25:57.713Z,19.90
2023-05-19T16:28:34.479Z,19.60
2023-05-19T16:31:11.178Z,21.00
2023-05-19T16:33:47.666Z,20.20
2023-05-19T16:36:23.925Z,22.40
2023-05-19T16:39:00.933Z,21.40
2023-05-19T16:41:37.636Z,19.80
2023-05-19T16:44:14.790Z,20.60
2023-05-19T16:46:51.280Z,21.20
2023-05-19T16:49:27.580Z,22.30
2023-05-19T16:52:04.027Z,19.60
2023-05-19T16:54:40.556Z,21.40
2023-05-19T16:57:17.249Z,19.40
2023-05-19T16:59:54.068Z,19.00
2023-05-19T17:02:30.881Z,21.00
2023-05-19T17:05:09.250Z,21.10
2023-05-19T17:07:45.629Z,20.90
2023-05-19T17:10:22.128Z,21.40
2023-05-19T17:12:58.413Z,20.60
2023-05-19T17:15:36.437Z,20.40
2023-05-19T17:18:12.968Z,20.40
2023-05-19T17:20:49.614Z,19.40
2023-05-19T17:23:26.247Z,20.40
2023-05-19T17:26:03.275Z,19.80
2023-05-19T17:28:39.629Z,21.70
2023-05-19T17:31:19.280Z,20.90
2023-05-19T17:33:55.629Z,19.40
2023-05-19T17:36:32.208Z,20.00
2023-05-19T17:39:08.753Z,19.60
2023-05-19T17:41:45.551Z,21.10
2023-05-19T17:44:21.977Z,21.20
2023-05-19T17:46:59.132Z,19.20
2023-05-19T17:49:36.893Z,20.80
2023-05-19T17:52:16.804Z,20.20
2023-05-19T17:54:54.709Z,19.10
2023-05-19T17:57:36.389Z,19.60
2023-05-19T18:00:18.693Z,17.70
2023-05-19T18:02:58.049Z,17.80
2023-05-19T18:05:37.925Z,17.40
2023-05-19T18:08:16.651Z,17.40
2023-05-19T18:10:56.867Z,16.00
2023-05-19T18:13:33.617Z,15.60
2023-05-19T18:16:11.025Z,16.80
2023-05-19T18:18:50.622Z,17.10
2023-05-19T18:21:27.538Z,17.60
2023-05-19T18:24:04.560Z,17.70
2023-05-19T18:26:42.284Z,17.70
2023-05-19T18:29:19.366Z,18.10
2023-05-19T18:31:55.783Z,17.70
2023-05-19T18:34:32.356Z,20.00
2023-05-19T18:37:09.358Z,19.10
2023-05-19T18:39:45.844Z,19.40
2023-05-19T18:42:22.385Z,19.60
2023-05-19T18:44:59.111Z,18.10
2023-05-19T18:47:36.029Z,17.70
2023-05-19T18:50:14.514Z,17.20
2023-05-19T18:52:51.204Z,17.50
2023-05-19T18:55:28.343Z,17.50
2023-05-19T18:58:05.203Z,17.90
2023-05-19T19:00:43.144Z,16.90
2023-05-19T19:03:20.308Z,18.10
2023-05-19T19:06:02.300Z,17.40
2023-05-19T19:08:39.214Z,18.80
2023-05-19T19:11:15.918Z,18.80
2023-05-19T19:13:55.579Z,17.80
2023-05-19T19:16:32.842Z,18.70
2023-05-19T19:19:10.148Z,18.30
2023-05-19T19:21:46.967Z,19.00
2023-05-19T19:24:23.387Z,20.10
2023-05-19T19:26:59.928Z,19.90
2023-05-19T19:29:36.740Z,18.80
2023-05-19T19:32:13.760Z,20.00
2023-05-19T19:34:52.713Z,18.70
2023-05-19T19:37:30.925Z,19.70
2023-05-19T19:40:10.076Z,19.70
2023-05-19T19:42:46.614Z,19.20
2023-05-19T19:45:23.345Z,21.10
2023-05-19T19:48:21.338Z,21.50
2023-05-19T19:51:01.302Z,22.60
2023-05-19T19:53:37.838Z,24.00
2023-05-19T19:56:14.185Z,20.80
2023-05-19T19:58:51.119Z,20.70
2023-05-19T20:01:34.447Z,20.70
2023-05-19T20:04:11.273Z,21.90
2023-05-19T20:06:47.814Z,21.30
2023-05-19T20:09:24.377Z,21.10
2023-05-19T20:12:00.990Z,19.90
2023-05-19T20:14:37.481Z,20.70
2023-05-19T20:17:13.972Z,21.60
2023-05-19T20:19:50.629Z,19.20
2023-05-19T20:22:27.237Z,19.90
2023-05-19T20:25:04.007Z,20.10
2023-05-19T20:27:40.624Z,21.40
2023-05-19T20:30:17.614Z,20.60
2023-05-19T20:32:54.164Z,22.00
2023-05-19T20:35:30.631Z,22.10
2023-05-19T20:38:07.252Z,21.10
2023-05-19T20:41:02.882Z,21.60
2023-05-19T20:43:43.035Z,21.60
2023-05-19T20:46:19.640Z,20.80
2023-05-19T20:48:56.348Z,21.10
2023-05-19T20:51:32.904Z,22.40
2023-05-19T20:54:09.729Z,21.60
2023-05-19T20:56:46.214Z,19.60
2023-05-19T20:59:22.921Z,21.00
2023-05-19T21:01:59.594Z,21.80
2023-05-19T21:04:37.634Z,21.80
2023-05-19T21:07:17.615Z,21.30
2023-05-19T21:09:54.531Z,23.50
2023-05-19T21:12:34.287Z,38.80
2023-05-19T21:15:14.251Z,23.60
2023-05-19T21:17:50.616Z,22.60
2023-05-19T21:20:29.235Z,23.10
2023-05-19T21:23:05.729Z,22.50
2023-05-19T21:25:44.004Z,23.30
2023-05-19T21:28:22.326Z,22.00
2023-05-19T21:30:59.155Z,22.90
2023-05-19T21:33:35.611Z,23.60
2023-05-19T21:36:12.921Z,23.70
2023-05-19T21:38:49.595Z,24.10
2023-05-19T21:41:26.087Z,24.30
2023-05-19T21:44:03.599Z,23.90
2023-05-19T21:46:40.078Z,24.70
2023-05-19T21:49:16.595Z,20.60
2023-05-19T21:51:53.005Z,23.20
2023-05-19T21:54:29.632Z,21.00
2023-05-19T21:57:06.810Z,20.90
2023-05-19T21:59:44.204Z,20.60
2023-05-19T22:02:20.638Z,21.00
2023-05-19T22:04:57.415Z,18.40
2023-05-19T22:07:33.943Z,18.60
2023-05-19T22:10:11.966Z,18.60
2023-05-19T22:12:48.478Z,18.60
2023-05-19T22:15:25.414Z,19.80
2023-05-19T22:18:01.767Z,16.30
2023-05-19T22:20:38.206Z,17.00
2023-05-19T22:23:15.007Z,17.30
2023-05-19T22:25:51.510Z,17.00
2023-05-19T22:28:28.398Z,16.60
2023-05-19T22:31:04.964Z,16.80
2023-05-19T22:33:41.430Z,18.00
2023-05-19T22:36:18.804Z,16.40
2023-05-19T22:38:55.215Z,15.70
2023-05-19T22:41:38.422Z,17.60
2023-05-19T22:44:16.408Z,17.10
2023-05-19T22:46:53.584Z,16.20
2023-05-19T22:49:30.234Z,17.00
2023-05-19T22:52:07.350Z,16.30
2023-05-19T22:54:43.722Z,18.10
2023-05-19T22:57:21.043Z,18.00
2023-05-19T23:00:06.742Z,14.40
2023-05-19T23:02:43.152Z,17.80
2023-05-19T23:05:23.210Z,17.30
2023-05-19T23:08:05.576Z,18.10
2023-05-19T23:10:42.622Z,18.30
2023-05-19T23:13:19.376Z,16.70
2023-05-19T23:16:01.533Z,17.50
2023-05-19T23:18:37.850Z,16.70
2023-05-19T23:21:16.612Z,17.60
2023-05-19T23:23:56.909Z,16.60
2023-05-19T23:26:33.361Z,16.60
2023-05-19T23:29:11.679Z,17.10
2023-05-19T23:31:50.753Z,16.70
2023-05-19T23:34:29.204Z,16.80
2023-05-19T23:37:05.525Z,16.20
2023-05-19T23:39:41.982Z,17.10
2023-05-19T23:42:19.595Z,17.40
2023-05-19T23:45:03.253Z,17.30
2023-05-19T23:47:46.075Z,17.30
2023-05-19T23:50:22.867Z,17.30
2023-05-19T23:53:03.834Z,17.30
2023-05-19T23:55:41.534Z,16.30
2023-05-19T23:58:17.998Z,16.70
